Time;durP1;ratioP1;P1;durP2;ratioP2;P2;SDS_P1;SDS_P2;PMS_P1;PMS_P2;Temp;Humidity;BMP_temperature;BMP_pressure;BME280_temperature;BME280_humidity;BME280_pressure;Samples;Min_cycle;Max_cycle;Signal;HPM_P1;HPM_P2
2022/12/12 00:02:10;;;;;;;18.02;13.45;;;21.40;92.00;;;;;;1879276;75;21131;-81
2022/12/12 00:04:41;;;;;;;17.23;12.60;;;21.40;92.10;;;;;;1878935;75;21155;-82
2022/12/12 00:07:12;;;;;;;17.67;12.82;;;21.40;91.90;;;;;;1877767;75;21194;-82
2022/12/12 00:09:43;;;;;;;17.07;13.05;;;21.40;91.90;;;;;;1890423;75;21116;-83
2022/12/12 00:12:13;;;;;;;21.10;13.75;;;21.40;92.00;;;;;;1886726;75;21123;-82
2022/12/12 00:14:44;;;;;;;17.48;13.03;;;21.40;92.00;;;;;;1888349;74;21209;-83
2022/12/12 00:17:15;;;;;;;18.42;13.68;;;21.40;92.00;;;;;;1887066;75;21061;-82
2022/12/12 00:19:46;;;;;;;18.67;12.78;;;21.40;92.20;;;;;;1896745;74;21075;-84
2022/12/12 00:22:16;;;;;;;17.10;12.55;;;21.40;92.10;;;;;;1891631;74;21148;-81
2022/12/12 00:24:47;;;;;;;19.48;13.83;;;21.40;92.50;;;;;;1891250;75;21217;-84
2022/12/12 00:27:18;;;;;;;21.80;13.90;;;21.40;92.00;;;;;;1882259;75;21056;-80
2022/12/12 00:29:53;;;;;;;22.48;15.23;;;21.40;91.90;;;;;;1886726;75;21060;-81
2022/12/12 00:32:24;;;;;;;18.57;14.45;;;21.50;91.90;;;;;;1848906;76;21532;-82
2022/12/12 00:34:54;;;;;;;17.70;12.47;;;21.60;91.80;;;;;;1798316;78;21122;-80
2022/12/12 00:37:25;;;;;;;17.15;14.13;;;21.60;91.70;;;;;;1847712;76;21154;-81
2022/12/12 00:39:56;;;;;;;17.77;13.62;;;21.60;91.50;;;;;;1822602;78;21087;-82
2022/12/12 00:42:27;;;;;;;21.20;14.73;;;21.70;91.60;;;;;;1832617;76;21558;-81
2022/12/12 00:45:08;;;;;;;17.30;12.85;;;21.70;91.70;;;;;;1901292;75;21069;-81
2022/12/12 00:47:39;;;;;;;17.85;13.13;;;21.80;91.50;;;;;;1897442;75;21105;-81
2022/12/12 00:50:11;;;;;;;17.80;14.00;;;21.80;91.50;;;;;;1886574;75;21143;-80
2022/12/12 00:52:41;;;;;;;18.82;13.53;;;21.90;91.60;;;;;;1857599;75;21135;-82
2022/12/12 00:55:13;;;;;;;18.30;12.25;;;22.00;91.60;;;;;;1852220;75;21696;-80
2022/12/12 00:57:44;;;;;;;18.17;12.95;;;22.00;91.40;;;;;;1879744;75;21056;-81
2022/12/12 01:00:16;;;;;;;16.48;13.10;;;22.00;91.40;;;;;;1872667;75;21122;-81
2022/12/12 01:02:47;;;;;;;18.98;13.13;;;22.10;91.30;;;;;;1842283;77;21606;-82
2022/12/12 01:05:18;;;;;;;17.05;13.20;;;22.10;91.30;;;;;;1866220;77;21482;-81
2022/12/12 01:07:49;;;;;;;17.80;13.88;;;22.20;91.20;;;;;;1876266;75;21151;-80
2022/12/12 01:10:20;;;;;;;17.70;13.48;;;22.20;91.10;;;;;;1860491;76;21210;-80
2022/12/12 01:12:51;;;;;;;19.92;14.63;;;22.20;91.20;;;;;;1861538;75;21138;-83
2022/12/12 01:15:22;;;;;;;16.60;12.95;;;22.20;91.10;;;;;;1863051;75;21112;-80
2022/12/12 01:17:55;;;;;;;20.45;14.80;;;22.20;91.00;;;;;;1863376;76;21338;-80
2022/12/12 01:20:28;;;;;;;17.67;14.58;;;22.20;91.00;;;;;;1860501;75;21116;-82
2022/12/12 01:23:00;;;;;;;18.82;14.90;;;22.30;91.00;;;;;;1866988;75;21281;-82
2022/12/12 01:25:31;;;;;;;21.10;14.87;;;22.30;90.90;;;;;;1872437;75;21182;-80
2022/12/12 01:28:03;;;;;;;20.32;15.75;;;22.30;90.90;;;;;;1870935;75;21618;-82
2022/12/12 01:30:36;;;;;;;24.00;15.78;;;22.40;90.90;;;;;;1862826;76;21144;-70
2022/12/12 01:33:07;;;;;;;20.32;16.00;;;22.40;90.80;;;;;;1858234;77;21156;-72
2022/12/12 01:35:38;;;;;;;18.35;14.40;;;22.50;90.80;;;;;;1862729;77;21135;-70
2022/12/12 01:38:08;;;;;;;20.40;14.75;;;22.50;90.60;;;;;;1862509;77;21187;-70
2022/12/12 01:40:39;;;;;;;19.07;13.53;;;22.50;90.60;;;;;;1866922;75;21135;-71
2022/12/12 01:43:14;;;;;;;18.30;14.05;;;22.60;90.50;;;;;;1866113;75;21163;-71
2022/12/12 01:46:03;;;;;;;16.90;12.95;;;22.60;90.50;;;;;;1848014;77;21092;-71
2022/12/12 01:48:40;;;;;;;21.25;12.88;;;22.60;90.30;;;;;;1848123;75;21164;-71
2022/12/12 01:51:13;;;;;;;21.73;17.07;;;22.60;90.10;;;;;;1852814;77;21198;-71
2022/12/12 01:53:45;;;;;;;21.23;15.10;;;22.70;90.20;;;;;;1852573;76;21539;-72
2022/12/12 01:56:19;;;;;;;18.05;13.08;;;22.70;90.10;;;;;;1857099;77;21171;-71
2022/12/12 01:58:52;;;;;;;20.12;14.05;;;22.70;90.10;;;;;;1864242;75;21116;-72
2022/12/12 02:01:24;;;;;;;21.80;15.20;;;22.80;90.50;;;;;;1842206;77;21587;-72
2022/12/12 02:03:55;;;;;;;18.07;12.75;;;22.90;90.20;;;;;;1835883;77;21249;-73
2022/12/12 02:06:28;;;;;;;14.93;12.10;;;22.90;90.00;;;;;;1847964;76;21611;-72
2022/12/12 02:09:02;;;;;;;17.05;12.07;;;23.00;88.90;;;;;;1843061;77;21210;-72
2022/12/12 02:11:35;;;;;;;19.17;13.58;;;23.00;88.10;;;;;;1852802;75;21152;-72
2022/12/12 02:14:06;;;;;;;23.85;15.60;;;23.10;88.30;;;;;;1869549;75;21253;-72
2022/12/12 02:16:40;;;;;;;16.30;11.33;;;23.20;88.10;;;;;;1881611;75;21136;-73
2022/12/12 02:19:19;;;;;;;16.37;11.60;;;23.20;87.10;;;;;;1843105;77;21213;-73
2022/12/12 02:22:04;;;;;;;15.80;11.83;;;23.30;87.10;;;;;;1845587;77;21160;-73
2022/12/12 02:24:56;;;;;;;16.10;12.15;;;23.30;86.70;;;;;;1854717;76;21215;-73
2022/12/12 02:27:36;;;;;;;20.97;13.00;;;23.40;87.10;;;;;;1860247;76;21135;-73
2022/12/12 02:30:21;;;;;;;18.77;13.75;;;23.50;87.00;;;;;;1858352;76;21347;-72
2022/12/12 02:33:00;;;;;;;17.55;11.85;;;23.50;86.60;;;;;;1882144;75;21213;-72
2022/12/12 02:35:51;;;;;;;31.40;14.90;;;23.50;86.20;;;;;;1880104;75;21233;-73
2022/12/12 02:38:39;;;;;;;18.40;13.18;;;23.50;86.60;;;;;;1851592;77;21152;-73
2022/12/12 02:41:16;;;;;;;14.68;11.55;;;23.60;86.60;;;;;;1732896;82;21200;-74
2022/12/12 02:44:05;;;;;;;16.35;12.45;;;23.60;86.20;;;;;;1797938;78;21096;-72
2022/12/12 02:46:45;;;;;;;14.55;11.33;;;23.70;85.80;;;;;;1860653;76;21161;-73
2022/12/12 02:49:21;;;;;;;20.48;12.25;;;23.70;85.70;;;;;;1876730;75;21084;-74
2022/12/12 02:51:53;;;;;;;15.10;12.37;;;23.80;85.80;;;;;;1849231;77;21706;-72
2022/12/12 02:54:24;;;;;;;16.52;12.15;;;23.80;86.00;;;;;;1845823;76;21173;-73
2022/12/12 02:56:57;;;;;;;16.42;12.07;;;23.80;85.90;;;;;;1849450;75;21212;-73
2022/12/12 02:59:37;;;;;;;15.75;11.55;;;23.90;85.70;;;;;;1862242;75;21678;-73
2022/12/12 03:02:17;;;;;;;16.82;12.23;;;23.90;85.10;;;;;;1822787;77;21143;-73
2022/12/12 03:08:17;;;;;;;18.00;11.85;;;24.00;85.00;;;;;;1854300;75;21599;-71
2022/12/12 03:11:04;;;;;;;19.85;13.58;;;24.10;84.70;;;;;;1851246;75;21614;-71
2022/12/12 03:13:44;;;;;;;15.68;10.80;;;24.10;84.40;;;;;;1858353;75;21136;-70
2022/12/12 03:16:32;;;;;;;15.65;11.10;;;24.20;84.10;;;;;;1849038;75;21093;-72
2022/12/12 03:19:09;;;;;;;17.98;12.00;;;24.20;84.20;;;;;;1849903;75;21191;-74
2022/12/12 03:22:03;;;;;;;15.00;11.73;;;24.30;84.50;;;;;;1856620;75;21666;-72
2022/12/12 03:24:45;;;;;;;15.23;11.28;;;24.40;83.70;;;;;;1856761;75;21179;-72
2022/12/12 03:27:24;;;;;;;16.85;11.18;;;24.40;83.60;;;;;;1863437;75;21174;-71
2022/12/12 03:30:16;;;;;;;13.85;10.65;;;24.50;84.10;;;;;;1859126;75;21266;-71
2022/12/12 03:32:55;;;;;;;14.07;10.85;;;24.50;84.10;;;;;;1859490;75;21076;-73
2022/12/12 03:35:40;;;;;;;15.48;11.38;;;24.60;83.10;;;;;;1849409;75;21576;-72
2022/12/12 03:38:26;;;;;;;14.55;11.38;;;24.70;81.60;;;;;;1853817;75;21182;-74
2022/12/12 03:40:59;;;;;;;14.10;10.95;;;24.80;81.80;;;;;;1859161;75;21089;-73
2022/12/12 03:43:36;;;;;;;12.93;9.45;;;24.80;82.00;;;;;;1793312;77;21155;-72
2022/12/12 03:46:11;;;;;;;14.95;10.55;;;24.90;80.60;;;;;;1797725;77;21200;-72
2022/12/12 03:48:44;;;;;;;18.55;10.25;;;25.00;79.80;;;;;;1796779;78;21220;-72
2022/12/12 03:51:21;;;;;;;13.88;10.13;;;25.10;79.60;;;;;;1809645;77;21189;-73
2022/12/12 03:53:57;;;;;;;14.35;10.03;;;25.20;79.60;;;;;;1770532;79;21225;-72
2022/12/12 03:56:36;;;;;;;14.73;9.97;;;25.30;79.40;;;;;;1853775;76;21169;-73
2022/12/12 03:59:13;;;;;;;14.98;10.68;;;25.40;78.10;;;;;;1856274;76;21183;-73
2022/12/12 04:01:53;;;;;;;13.10;10.20;;;25.50;78.30;;;;;;1811115;77;21615;-71
2022/12/12 04:04:36;;;;;;;15.68;10.20;;;25.60;79.70;;;;;;1785538;79;21279;-73
2022/12/12 04:07:25;;;;;;;13.78;9.90;;;25.70;78.30;;;;;;1840558;76;21160;-72
2022/12/12 04:13:02;;;;;;;14.68;10.78;;;26.00;77.60;;;;;;1851233;76;21551;-71
2022/12/12 04:15:48;;;;;;;12.63;10.48;;;26.10;76.90;;;;;;1855094;76;21311;-70
2022/12/12 04:18:45;;;;;;;15.75;10.93;;;26.10;76.20;;;;;;1827673;76;21166;-69
2022/12/12 04:24:47;;;;;;;14.47;11.85;;;26.40;76.40;;;;;;1857499;76;21226;-72
2022/12/12 04:27:29;;;;;;;14.63;10.70;;;26.50;76.20;;;;;;1852884;76;21257;-71
2022/12/12 04:30:15;;;;;;;13.83;10.68;;;26.50;76.00;;;;;;1856053;75;21186;-72
2022/12/12 04:32:54;;;;;;;13.40;10.43;;;26.60;75.80;;;;;;1792074;78;21175;-70
2022/12/12 04:35:33;;;;;;;14.47;10.90;;;26.70;75.40;;;;;;1836800;76;21167;-70
2022/12/12 04:38:15;;;;;;;18.10;13.68;;;26.80;75.80;;;;;;1847140;76;21122;-71
2022/12/12 04:40:50;;;;;;;15.68;10.32;;;26.90;74.90;;;;;;1824027;77;21211;-71
2022/12/12 04:43:36;;;;;;;17.27;10.38;;;27.00;74.80;;;;;;1865788;74;21206;-71
2022/12/12 04:46:10;;;;;;;14.40;10.88;;;27.10;74.00;;;;;;1872790;75;21265;-71
2022/12/12 04:48:54;;;;;;;13.10;10.43;;;27.20;74.30;;;;;;1870924;75;21147;-71
2022/12/12 04:51:30;;;;;;;15.98;10.50;;;27.30;73.50;;;;;;1871298;75;21253;-70
2022/12/12 04:54:12;;;;;;;13.18;10.23;;;27.40;73.80;;;;;;1872669;74;21809;-71
2022/12/12 04:56:47;;;;;;;14.63;10.58;;;27.50;73.40;;;;;;1873936;75;21142;-71
2022/12/12 04:59:19;;;;;;;14.98;9.95;;;27.50;72.30;;;;;;1877367;75;21579;-72
2022/12/12 05:02:10;;;;;;;16.05;10.82;;;27.60;73.10;;;;;;1871966;74;21128;-71
2022/12/12 05:04:50;;;;;;;12.90;10.68;;;27.60;72.60;;;;;;1890862;74;21177;-72
2022/12/12 05:07:29;;;;;;;15.10;10.90;;;27.70;72.20;;;;;;1890000;74;21183;-72
2022/12/12 05:10:01;;;;;;;14.95;11.18;;;27.80;71.90;;;;;;1877020;74;21591;-73
2022/12/12 05:12:41;;;;;;;14.05;10.72;;;27.90;72.40;;;;;;1864498;76;21204;-71
2022/12/12 05:15:14;;;;;;;15.08;11.08;;;27.90;71.20;;;;;;1836405;76;21184;-73
2022/12/12 05:17:47;;;;;;;14.45;10.68;;;28.10;71.20;;;;;;1845644;76;21089;-71
2022/12/12 05:20:19;;;;;;;15.68;12.20;;;28.10;70.30;;;;;;1826688;76;21139;-73
2022/12/12 05:22:51;;;;;;;16.05;10.68;;;28.10;70.10;;;;;;1829569;77;21214;-71
2022/12/12 05:25:24;;;;;;;14.90;11.10;;;28.10;71.40;;;;;;1871910;76;21478;-72
2022/12/12 05:27:54;;;;;;;18.57;12.03;;;28.10;71.90;;;;;;1863353;76;21080;-73
2022/12/12 05:30:26;;;;;;;12.85;10.45;;;28.10;70.00;;;;;;1899741;74;21570;-70
2022/12/12 05:32:57;;;;;;;14.20;11.03;;;28.10;70.40;;;;;;1882387;74;21132;-73
2022/12/12 05:35:28;;;;;;;12.05;10.08;;;28.10;69.90;;;;;;1880800;74;21162;-70
2022/12/12 05:37:59;;;;;;;13.15;10.82;;;28.00;69.70;;;;;;1891432;75;21147;-73
2022/12/12 05:40:31;;;;;;;13.53;10.80;;;28.00;69.80;;;;;;1881809;75;21592;-71
2022/12/12 05:43:02;;;;;;;15.95;10.85;;;27.90;69.40;;;;;;1838878;76;21150;-72
2022/12/12 05:45:34;;;;;;;12.90;10.48;;;27.80;70.30;;;;;;1782774;80;21136;-72
2022/12/12 05:48:05;;;;;;;13.45;10.60;;;27.70;70.40;;;;;;1857368;74;21142;-72
2022/12/12 05:50:36;;;;;;;14.47;10.98;;;27.60;70.70;;;;;;1860507;76;21103;-73
2022/12/12 05:53:07;;;;;;;15.45;11.08;;;27.60;70.90;;;;;;1872522;75;21412;-71
2022/12/12 05:55:38;;;;;;;12.68;9.88;;;27.50;71.00;;;;;;1862662;76;21684;-70
2022/12/12 05:58:10;;;;;;;15.50;10.78;;;27.40;71.10;;;;;;1809202;78;21156;-72
2022/12/12 06:00:41;;;;;;;14.87;11.73;;;27.40;70.60;;;;;;1830718;77;21168;-72
2022/12/12 06:03:12;;;;;;;17.40;11.95;;;27.40;70.90;;;;;;1831531;77;21160;-72
2022/12/12 06:05:43;;;;;;;16.25;11.97;;;27.40;71.30;;;;;;1812174;77;21099;-72
2022/12/12 06:08:15;;;;;;;16.20;12.07;;;27.40;71.10;;;;;;1819169;78;21167;-71
2022/12/12 06:10:47;;;;;;;12.78;10.60;;;27.50;71.10;;;;;;1804234;79;21271;-71
2022/12/12 06:13:20;;;;;;;12.82;10.40;;;27.50;71.20;;;;;;1884408;75;21134;-71
2022/12/12 06:15:51;;;;;;;14.43;10.58;;;27.50;70.90;;;;;;1890648;74;21143;-72
2022/12/12 06:18:23;;;;;;;14.70;10.90;;;27.40;70.60;;;;;;1874759;75;21221;-71
2022/12/12 06:20:56;;;;;;;19.52;10.65;;;27.40;70.80;;;;;;1894553;75;21194;-71
2022/12/12 06:23:30;;;;;;;15.08;10.75;;;27.30;70.80;;;;;;1887682;74;21517;-71
2022/12/12 06:26:01;;;;;;;14.55;11.48;;;27.30;71.10;;;;;;1838903;77;21217;-72
2022/12/12 06:28:32;;;;;;;14.40;11.43;;;27.30;71.20;;;;;;1814706;78;21241;-71
2022/12/12 06:31:03;;;;;;;17.00;11.30;;;27.20;71.20;;;;;;1840979;78;21630;-71
2022/12/12 06:33:35;;;;;;;14.20;11.55;;;27.30;70.80;;;;;;1833450;77;21174;-71
2022/12/12 06:36:10;;;;;;;13.08;10.55;;;27.20;70.80;;;;;;1843488;78;21202;-71
2022/12/12 06:38:41;;;;;;;14.80;10.25;;;27.20;71.10;;;;;;1888058;74;21209;-73
2022/12/12 06:41:14;;;;;;;12.95;9.78;;;27.30;71.10;;;;;;1896674;74;21092;-71
2022/12/12 06:43:47;;;;;;;13.78;10.03;;;27.40;71.20;;;;;;1838949;76;21084;-72
2022/12/12 06:46:23;;;;;;;16.07;10.10;;;27.60;70.40;;;;;;1867267;76;21524;-71
2022/12/12 06:48:56;;;;;;;13.72;10.30;;;27.70;69.70;;;;;;1862246;76;21271;-71
2022/12/12 06:51:36;;;;;;;15.15;11.03;;;27.80;68.90;;;;;;1808960;78;21241;-71
2022/12/12 06:54:10;;;;;;;13.95;10.80;;;27.90;69.40;;;;;;1814123;78;21142;-71
2022/12/12 06:56:41;;;;;;;16.23;11.08;;;27.90;69.90;;;;;;1834915;78;21187;-72
2022/12/12 06:59:14;;;;;;;12.70;10.40;;;27.80;69.10;;;;;;1846788;76;21259;-71
2022/12/12 07:01:45;;;;;;;14.58;10.55;;;27.80;69.10;;;;;;1836302;76;21088;-72
2022/12/12 07:04:16;;;;;;;12.73;10.60;;;27.80;68.90;;;;;;1839043;76;21146;-71
2022/12/12 07:06:47;;;;;;;13.50;10.40;;;27.70;68.90;;;;;;1837737;76;21166;-72
2022/12/12 07:09:19;;;;;;;15.13;10.98;;;27.70;69.40;;;;;;1834100;78;21528;-71
2022/12/12 07:11:50;;;;;;;12.68;10.68;;;27.70;69.70;;;;;;1850755;76;21167;-72
2022/12/12 07:14:21;;;;;;;13.98;10.45;;;27.60;70.20;;;;;;1812712;77;21572;-72
2022/12/12 07:16:52;;;;;;;14.18;10.58;;;27.60;70.00;;;;;;1810083;79;21156;-72
2022/12/12 07:19:24;;;;;;;13.32;10.23;;;27.60;70.40;;;;;;1799851;79;21239;-71
2022/12/12 07:21:56;;;;;;;12.47;9.70;;;27.50;70.40;;;;;;1880759;75;21204;-71
2022/12/12 07:24:29;;;;;;;16.07;10.65;;;27.40;70.30;;;;;;1851538;75;21117;-70
2022/12/12 07:26:59;;;;;;;18.48;11.30;;;27.40;70.60;;;;;;1846603;77;21209;-72
2022/12/12 07:29:30;;;;;;;14.38;10.63;;;27.40;71.30;;;;;;1871806;76;21614;-71
2022/12/12 07:32:02;;;;;;;14.58;11.28;;;27.40;71.00;;;;;;1874757;76;21248;-72
2022/12/12 07:34:33;;;;;;;14.58;9.58;;;27.40;70.80;;;;;;1865005;75;21084;-72
2022/12/12 07:37:05;;;;;;;14.80;10.45;;;27.40;70.30;;;;;;1843602;76;21058;-70
2022/12/12 07:39:36;;;;;;;20.52;11.33;;;27.50;70.50;;;;;;1853445;76;22219;-72
2022/12/12 07:42:07;;;;;;;14.50;11.05;;;27.60;70.50;;;;;;1874636;76;21084;-71
2022/12/12 07:44:38;;;;;;;14.65;9.60;;;27.60;69.50;;;;;;1867087;76;21614;-72
2022/12/12 07:47:10;;;;;;;15.10;10.23;;;27.60;69.50;;;;;;1879061;74;21079;-71
2022/12/12 07:49:41;;;;;;;17.30;10.98;;;27.60;69.80;;;;;;1884304;76;21170;-71
2022/12/12 07:52:12;;;;;;;12.13;9.70;;;27.60;70.00;;;;;;1875275;76;21197;-71
2022/12/12 07:54:43;;;;;;;17.48;10.65;;;27.60;70.00;;;;;;1898190;74;21612;-71
2022/12/12 07:57:14;;;;;;;14.60;9.93;;;27.60;69.70;;;;;;1894384;74;21204;-70
2022/12/12 07:59:48;;;;;;;13.10;10.50;;;27.60;70.00;;;;;;1884683;76;21143;-71
2022/12/12 08:02:20;;;;;;;13.85;10.80;;;27.60;70.20;;;;;;1883284;76;21061;-71
2022/12/12 08:04:51;;;;;;;17.50;10.60;;;27.60;70.10;;;;;;1891935;75;21893;-71
2022/12/12 08:07:23;;;;;;;16.87;10.08;;;27.50;69.60;;;;;;1884033;75;21127;-72
2022/12/12 08:09:53;;;;;;;14.70;10.68;;;27.50;70.20;;;;;;1890240;74;21629;-72
2022/12/12 08:12:25;;;;;;;13.50;10.68;;;27.40;70.30;;;;;;1890394;76;21146;-72
2022/12/12 08:14:55;;;;;;;12.43;10.43;;;27.40;70.20;;;;;;1889820;76;21114;-72
2022/12/12 08:17:26;;;;;;;13.08;10.10;;;27.40;70.30;;;;;;1917314;74;21153;-71
2022/12/12 08:19:57;;;;;;;14.55;10.95;;;27.40;70.30;;;;;;1914370;74;21749;-71
2022/12/12 08:22:28;;;;;;;12.60;9.85;;;27.40;70.00;;;;;;1886877;74;21165;-71
2022/12/12 08:24:59;;;;;;;12.60;10.58;;;27.40;70.60;;;;;;1890250;74;21099;-72
2022/12/12 08:27:30;;;;;;;14.15;11.25;;;27.40;70.60;;;;;;1885963;76;21079;-71
2022/12/12 08:30:05;;;;;;;15.15;10.53;;;27.30;70.70;;;;;;1885157;76;21657;-71
2022/12/12 08:32:36;;;;;;;15.63;10.78;;;27.30;70.70;;;;;;1884543;76;21115;-71
2022/12/12 08:35:08;;;;;;;14.45;10.90;;;27.30;70.60;;;;;;1883578;76;22322;-72
2022/12/12 08:37:39;;;;;;;15.43;10.45;;;27.30;70.60;;;;;;1883729;76;21127;-72
2022/12/12 08:40:11;;;;;;;15.23;11.30;;;27.30;71.10;;;;;;1886332;76;21143;-72
2022/12/12 08:42:44;;;;;;;16.40;10.65;;;27.30;71.20;;;;;;1898025;75;21156;-72
2022/12/12 08:45:15;;;;;;;15.10;10.95;;;27.30;70.80;;;;;;1921438;74;21192;-72
2022/12/12 08:47:47;;;;;;;16.42;10.63;;;27.30;70.80;;;;;;1869264;77;21119;-72
2022/12/12 08:50:17;;;;;;;15.58;10.53;;;27.30;70.50;;;;;;1866114;77;21107;-71
2022/12/12 08:52:49;;;;;;;14.73;10.72;;;27.30;70.60;;;;;;1860408;77;21445;-71
2022/12/12 08:55:20;;;;;;;14.73;10.88;;;27.30;70.80;;;;;;1861729;77;21673;-71
2022/12/12 08:57:50;;;;;;;16.10;10.10;;;27.30;70.80;;;;;;1862807;76;21124;-71
2022/12/12 09:00:23;;;;;;;17.95;10.45;;;27.30;70.90;;;;;;1855981;77;21080;-71
2022/12/12 09:02:53;;;;;;;13.95;10.82;;;27.30;71.20;;;;;;1857031;76;21230;-71
2022/12/12 09:05:26;;;;;;;15.68;10.48;;;27.30;71.30;;;;;;1865559;75;21714;-71
2022/12/12 09:07:58;;;;;;;14.38;10.43;;;27.30;70.80;;;;;;1858470;77;22130;-72
2022/12/12 09:10:30;;;;;;;15.15;10.03;;;27.30;70.40;;;;;;1866681;77;21131;-71
2022/12/12 09:13:01;;;;;;;16.37;9.88;;;27.30;70.70;;;;;;1864430;75;21240;-71
2022/12/12 09:15:34;;;;;;;13.48;9.38;;;27.30;70.40;;;;;;1853311;77;21156;-71
2022/12/12 09:18:05;;;;;;;15.23;9.70;;;27.30;70.40;;;;;;1862536;75;21104;-72
2022/12/12 09:20:36;;;;;;;16.85;10.15;;;27.30;69.90;;;;;;1859612;77;21611;-71
2022/12/12 09:23:07;;;;;;;13.85;10.32;;;27.20;70.20;;;;;;1879291;75;21080;-72
2022/12/12 09:25:38;;;;;;;13.20;9.70;;;27.20;70.40;;;;;;1865936;76;21080;-71
2022/12/12 09:31:05;;;;;;;13.72;10.23;;;27.20;70.60;;;;;;1845050;76;21223;-71
2022/12/12 09:33:36;;;;;;;13.98;9.98;;;27.20;70.50;;;;;;1869673;75;21526;-72
2022/12/12 09:39:01;;;;;;;14.45;10.50;;;27.20;70.60;;;;;;1869352;75;21071;-71
2022/12/12 09:41:52;;;;;;;15.68;10.93;;;27.10;71.00;;;;;;1857717;76;21220;-72
2022/12/12 09:44:26;;;;;;;12.30;10.08;;;27.10;71.20;;;;;;1847737;77;21595;-72
2022/12/12 09:46:59;;;;;;;17.37;11.10;;;27.10;71.60;;;;;;1852512;76;21086;-72
2022/12/12 09:49:42;;;;;;;15.00;10.90;;;27.10;71.80;;;;;;1828134;77;21167;-72
2022/12/12 09:52:19;;;;;;;18.60;9.95;;;27.10;71.70;;;;;;1843640;76;21144;-72
2022/12/12 09:54:53;;;;;;;15.18;10.70;;;27.10;71.60;;;;;;1857682;76;21102;-72
2022/12/12 09:57:35;;;;;;;15.70;10.32;;;27.00;71.60;;;;;;1865004;76;21600;-71
2022/12/12 10:00:11;;;;;;;15.20;9.80;;;27.00;71.80;;;;;;1866905;76;21118;-72
2022/12/12 10:03:12;;;;;;;13.48;9.45;;;26.90;71.80;;;;;;1849338;76;21595;-71
2022/12/12 10:05:51;;;;;;;15.08;10.90;;;26.90;72.10;;;;;;1847871;77;21139;-72
2022/12/12 10:08:59;;;;;;;13.53;11.28;;;26.80;72.20;;;;;;1847251;76;21225;-72
2022/12/12 10:11:53;;;;;;;16.60;11.30;;;26.80;72.50;;;;;;1840974;76;21163;-72
2022/12/12 10:14:56;;;;;;;15.65;10.68;;;26.80;73.70;;;;;;1821683;76;21159;-72
2022/12/12 10:17:32;;;;;;;18.87;12.20;;;26.80;73.20;;;;;;1876090;75;21141;-73
2022/12/12 10:20:18;;;;;;;15.70;11.63;;;26.70;73.20;;;;;;1841229;77;21584;-72
2022/12/12 10:23:19;;;;;;;21.07;12.23;;;26.70;73.50;;;;;;1810301;78;21245;-73
2022/12/12 10:26:01;;;;;;;17.15;12.03;;;26.60;73.80;;;;;;1732890;82;21234;-73
2022/12/12 10:28:33;;;;;;;16.30;11.75;;;26.60;74.10;;;;;;1757070;80;21259;-72
2022/12/12 10:31:11;;;;;;;15.93;11.25;;;26.50;74.20;;;;;;1793120;77;21212;-73
2022/12/12 10:33:45;;;;;;;14.03;11.10;;;26.50;74.40;;;;;;1878958;76;21111;-72
2022/12/12 10:36:48;;;;;;;15.50;11.28;;;26.50;74.80;;;;;;1885722;74;21158;-73
2022/12/12 10:39:33;;;;;;;18.60;12.33;;;26.50;75.10;;;;;;1870074;75;21132;-72
2022/12/12 10:42:23;;;;;;;20.55;12.88;;;26.40;75.10;;;;;;1882994;75;21183;-72
2022/12/12 10:44:59;;;;;;;20.17;11.78;;;26.40;75.30;;;;;;1882173;75;21649;-72
2022/12/12 10:47:31;;;;;;;16.95;12.18;;;26.40;75.40;;;;;;1876853;74;21124;-72
2022/12/12 10:50:28;;;;;;;26.45;12.37;;;26.40;75.60;;;;;;1833282;77;21155;-72
2022/12/12 10:53:00;;;;;;;19.77;11.73;;;26.40;75.90;;;;;;1861875;75;21613;-72
2022/12/12 10:55:42;;;;;;;16.35;11.35;;;26.40;75.90;;;;;;1883409;75;21163;-72
2022/12/12 10:58:15;;;;;;;17.95;12.35;;;26.30;76.00;;;;;;1879047;75;21080;-72
2022/12/12 11:00:48;;;;;;;22.00;12.68;;;26.30;76.30;;;;;;1876528;74;21273;-73
2022/12/12 11:03:25;;;;;;;17.55;12.50;;;26.30;76.50;;;;;;1882688;75;21202;-73
2022/12/12 11:05:57;;;;;;;16.77;11.85;;;26.30;76.40;;;;;;1881553;74;21687;-74
2022/12/12 11:08:30;;;;;;;17.70;12.78;;;26.20;76.60;;;;;;1879502;75;21127;-73
2022/12/12 11:11:19;;;;;;;17.55;12.65;;;26.20;76.60;;;;;;1836374;76;21116;-72
2022/12/12 11:14:01;;;;;;;18.87;13.72;;;26.10;76.70;;;;;;1882058;75;21124;-73
2022/12/12 11:16:40;;;;;;;24.52;15.55;;;26.10;76.90;;;;;;1890532;75;21136;-72
2022/12/12 11:19:20;;;;;;;27.85;16.67;;;26.10;77.00;;;;;;1882490;75;21069;-72
2022/12/12 11:21:52;;;;;;;28.70;17.80;;;26.10;77.30;;;;;;1878725;76;21147;-72
2022/12/12 11:24:25;;;;;;;25.02;17.02;;;26.00;77.20;;;;;;1846615;76;21150;-72
2022/12/12 11:27:02;;;;;;;30.77;18.90;;;26.00;77.40;;;;;;1826649;77;21139;-72
2022/12/12 11:29:38;;;;;;;34.00;21.33;;;25.90;77.50;;;;;;1823691;77;21143;-73
2022/12/12 11:32:15;;;;;;;27.82;18.87;;;25.90;78.70;;;;;;1809364;79;21620;-72
2022/12/12 11:34:48;;;;;;;22.48;17.00;;;25.90;77.70;;;;;;1816933;77;21525;-73
2022/12/12 11:37:21;;;;;;;25.55;18.17;;;25.90;78.00;;;;;;1826717;78;21119;-72
2022/12/12 11:39:54;;;;;;;26.48;17.98;;;25.90;78.20;;;;;;1843240;76;21105;-72
2022/12/12 11:42:31;;;;;;;25.05;17.30;;;25.90;78.20;;;;;;1828781;76;21187;-72
2022/12/12 11:45:10;;;;;;;24.60;18.20;;;25.90;78.30;;;;;;1836108;77;21096;-72
2022/12/12 11:47:46;;;;;;;27.55;18.87;;;25.80;78.50;;;;;;1848015;75;21135;-72
2022/12/12 11:50:25;;;;;;;26.60;18.82;;;25.80;78.70;;;;;;1882423;75;21111;-72
2022/12/12 11:52:58;;;;;;;25.95;19.05;;;25.80;78.90;;;;;;1880626;75;21573;-72
2022/12/12 11:55:58;;;;;;;26.80;18.42;;;25.80;78.40;;;;;;1879353;76;21124;-73
2022/12/12 11:58:32;;;;;;;26.68;18.48;;;25.80;78.30;;;;;;1853065;76;21567;-72
2022/12/12 12:01:05;;;;;;;24.67;17.55;;;25.80;77.80;;;;;;1826619;76;21116;-72
2022/12/12 12:03:47;;;;;;;28.05;16.87;;;25.80;77.00;;;;;;1865773;75;21124;-72
2022/12/12 12:06:24;;;;;;;26.73;16.60;;;25.70;76.40;;;;;;1878609;76;21120;-72
2022/12/12 12:09:20;;;;;;;23.32;16.23;;;25.70;76.40;;;;;;1855169;76;21141;-73
2022/12/12 12:12:12;;;;;;;24.07;15.65;;;25.70;76.30;;;;;;1858512;76;21075;-72
2022/12/12 12:14:51;;;;;;;20.72;15.45;;;25.70;76.20;;;;;;1844254;76;21226;-72
2022/12/12 12:17:43;;;;;;;21.73;15.72;;;25.70;75.90;;;;;;1842684;76;21210;-72
2022/12/12 12:20:26;;;;;;;23.50;15.83;;;25.70;75.70;;;;;;1808214;77;21124;-72
2022/12/12 12:23:27;;;;;;;26.05;15.23;;;25.70;75.40;;;;;;1820626;77;21214;-72
2022/12/12 12:26:06;;;;;;;21.00;15.63;;;25.60;75.60;;;;;;1817040;76;21143;-72
2022/12/12 12:28:39;;;;;;;24.15;15.72;;;25.60;75.60;;;;;;1820839;77;21131;-72
2022/12/12 12:31:16;;;;;;;22.10;15.30;;;25.60;75.60;;;;;;1800987;79;21532;-72
2022/12/12 12:33:55;;;;;;;22.70;14.58;;;25.60;75.60;;;;;;1825287;76;21140;-72
2022/12/12 12:36:34;;;;;;;22.60;14.87;;;25.60;75.50;;;;;;1857760;77;21156;-72
2022/12/12 12:39:19;;;;;;;22.98;14.83;;;25.50;75.60;;;;;;1818164;76;21175;-71
2022/12/12 12:42:18;;;;;;;22.93;15.53;;;25.50;75.70;;;;;;1802593;79;21935;-72
2022/12/12 12:45:14;;;;;;;25.80;15.80;;;25.50;75.90;;;;;;1826937;78;21662;-71
2022/12/12 12:47:56;;;;;;;26.20;17.15;;;25.50;75.80;;;;;;1834175;77;21235;-71
2022/12/12 12:50:38;;;;;;;24.87;16.40;;;25.50;75.90;;;;;;1790791;76;21702;-72
2022/12/12 12:53:30;;;;;;;23.02;15.98;;;25.50;75.90;;;;;;1842547;76;21139;-71
2022/12/12 12:56:05;;;;;;;25.85;17.65;;;25.40;75.90;;;;;;1823024;76;21777;-73
2022/12/12 12:58:38;;;;;;;23.18;16.37;;;25.40;76.00;;;;;;1831220;77;21120;-72
2022/12/12 13:01:17;;;;;;;26.10;17.20;;;25.30;76.10;;;;;;1845962;76;21720;-70
2022/12/12 13:04:01;;;;;;;28.47;18.48;;;25.30;76.20;;;;;;1844466;77;21607;-72
2022/12/12 13:07:07;;;;;;;25.52;17.90;;;25.30;76.20;;;;;;1829943;76;21633;-71
2022/12/12 13:10:04;;;;;;;27.13;17.80;;;25.30;76.20;;;;;;1814097;78;21143;-72
2022/12/12 13:12:44;;;;;;;25.08;17.55;;;25.30;76.30;;;;;;1829806;77;21167;-72
2022/12/12 13:15:20;;;;;;;24.05;15.83;;;25.30;76.10;;;;;;1803605;78;21112;-72
2022/12/12 13:18:07;;;;;;;27.95;15.53;;;25.30;76.30;;;;;;1829862;78;21180;-72
2022/12/12 13:20:41;;;;;;;;;;;25.30;76.40;;;;;;1828555;78;21230;-73
2022/12/12 13:23:26;;;;;;;29.15;17.10;;;25.20;76.40;;;;;;1797547;78;20135;-72
2022/12/12 13:26:34;;;;;;;26.37;17.02;;;25.20;76.20;;;;;;1796702;78;21600;-73
2022/12/12 13:29:32;;;;;;;26.07;17.23;;;25.20;76.30;;;;;;1802145;78;21713;-72
2022/12/12 13:32:17;;;;;;;26.05;15.20;;;25.10;76.50;;;;;;1808332;78;21801;-73